sensor_id;sensor_type;location;lat;lon;timestamp;temperature;humidity
58339;DHT22;48278;52.704;6.536;2023-03-01T00:01:11;-1.00;99.90
58339;DHT22;48278;52.704;6.536;2023-03-01T00:03:38;-1.10;99.90
58339;DHT22;48278;52.704;6.536;2023-03-01T00:06:04;-1.10;99.90
58339;DHT22;48278;52.704;6.536;2023-03-01T00:08:30;-1.10;99.90
58339;DHT22;48278;52.704;6.536;2023-03-01T00:11:12;-1.10;99.90
58339;DHT22;48278;52.704;6.536;2023-03-01T00:13:39;-1.10;99.90
58339;DHT22;48278;52.704;6.536;2023-03-01T00:16:09;-1.10;99.90
58339;DHT22;48278;52.704;6.536;2023-03-01T00:18:35;-1.10;99.90
58339;DHT22;48278;52.704;6.536;2023-03-01T00:21:01;-1.10;99.90
58339;DHT22;48278;52.704;6.536;2023-03-01T00:23:27;-1.10;99.90
58339;DHT22;48278;52.704;6.536;2023-03-01T00:25:53;-1.10;99.90
58339;DHT22;48278;52.704;6.536;2023-03-01T00:28:19;-1.20;99.90
58339;DHT22;48278;52.704;6.536;2023-03-01T00:30:45;-1.20;99.90
58339;DHT22;48278;52.704;6.536;2023-03-01T00:33:11;-1.10;99.90
58339;DHT22;48278;52.704;6.536;2023-03-01T00:35:37;-1.10;99.90
58339;DHT22;48278;52.704;6.536;2023-03-01T00:38:04;-1.00;99.90
58339;DHT22;48278;52.704;6.536;2023-03-01T00:40:32;-1.00;99.90
58339;DHT22;48278;52.704;6.536;2023-03-01T00:42:58;-0.90;99.90
58339;DHT22;48278;52.704;6.536;2023-03-01T00:45:24;-1.00;99.90
58339;DHT22;48278;52.704;6.536;2023-03-01T00:47:51;-0.90;99.90
58339;DHT22;48278;52.704;6.536;2023-03-01T00:50:18;-0.80;99.90
58339;DHT22;48278;52.704;6.536;2023-03-01T00:52:44;-0.80;99.90
58339;DHT22;48278;52.704;6.536;2023-03-01T00:55:10;-0.80;99.90
58339;DHT22;48278;52.704;6.536;2023-03-01T00:57:36;-0.80;99.90
58339;DHT22;48278;52.704;6.536;2023-03-01T01:00:04;-0.80;99.90
58339;DHT22;48278;52.704;6.536;2023-03-01T01:02:32;-0.90;99.90
58339;DHT22;48278;52.704;6.536;2023-03-01T01:04:58;-0.90;99.90
58339;DHT22;48278;52.704;6.536;2023-03-01T01:07:24;-1.00;99.90
58339;DHT22;48278;52.704;6.536;2023-03-01T01:09:49;-1.10;99.90
58339;DHT22;48278;52.704;6.536;2023-03-01T01:12:15;-1.00;99.90
58339;DHT22;48278;52.704;6.536;2023-03-01T01:14:41;-0.90;99.90
58339;DHT22;48278;52.704;6.536;2023-03-01T01:17:07;-1.00;99.90
58339;DHT22;48278;52.704;6.536;2023-03-01T01:19:32;-1.00;99.90
58339;DHT22;48278;52.704;6.536;2023-03-01T01:21:58;-1.00;99.90
58339;DHT22;48278;52.704;6.536;2023-03-01T01:24:24;-1.00;99.90
58339;DHT22;48278;52.704;6.536;2023-03-01T01:26:50;-1.10;99.90
58339;DHT22;48278;52.704;6.536;2023-03-01T01:29:15;-1.10;99.90
58339;DHT22;48278;52.704;6.536;2023-03-01T01:31:42;-1.20;99.90
58339;DHT22;48278;52.704;6.536;2023-03-01T01:34:14;-1.20;99.90
58339;DHT22;48278;52.704;6.536;2023-03-01T01:36:39;-1.20;99.90
58339;DHT22;48278;52.704;6.536;2023-03-01T01:39:05;-1.10;99.90
58339;DHT22;48278;52.704;6.536;2023-03-01T01:41:31;-1.20;99.90
58339;DHT22;48278;52.704;6.536;2023-03-01T01:52:02;-1.20;99.90
58339;DHT22;48278;52.704;6.536;2023-03-01T01:54:35;-1.30;99.90
58339;DHT22;48278;52.704;6.536;2023-03-01T01:57:07;-1.30;99.90
58339;DHT22;48278;52.704;6.536;2023-03-01T01:59:34;-1.30;99.90
58339;DHT22;48278;52.704;6.536;2023-03-01T02:02:02;-1.40;99.90
58339;DHT22;48278;52.704;6.536;2023-03-01T02:04:30;-1.30;99.90
58339;DHT22;48278;52.704;6.536;2023-03-01T02:07:01;-1.30;99.90
58339;DHT22;48278;52.704;6.536;2023-03-01T02:09:28;-1.30;99.90
58339;DHT22;48278;52.704;6.536;2023-03-01T02:11:56;-1.40;99.90
58339;DHT22;48278;52.704;6.536;2023-03-01T02:14:22;-1.30;99.90
58339;DHT22;48278;52.704;6.536;2023-03-01T02:16:48;-1.40;99.90
58339;DHT22;48278;52.704;6.536;2023-03-01T02:19:30;-1.40;99.90
58339;DHT22;48278;52.704;6.536;2023-03-01T02:22:11;-1.40;99.90
58339;DHT22;48278;52.704;6.536;2023-03-01T02:25:05;-1.50;99.90
58339;DHT22;48278;52.704;6.536;2023-03-01T02:30:28;-1.60;99.90
58339;DHT22;48278;52.704;6.536;2023-03-01T02:32:56;-1.70;99.90
58339;DHT22;48278;52.704;6.536;2023-03-01T02:35:36;-1.80;99.90
58339;DHT22;48278;52.704;6.536;2023-03-01T02:38:03;-1.90;99.90
58339;DHT22;48278;52.704;6.536;2023-03-01T02:40:34;-1.90;99.90
58339;DHT22;48278;52.704;6.536;2023-03-01T02:43:01;-2.00;99.90
58339;DHT22;48278;52.704;6.536;2023-03-01T02:45:29;-1.90;99.90
58339;DHT22;48278;52.704;6.536;2023-03-01T02:47:56;-1.90;99.90
58339;DHT22;48278;52.704;6.536;2023-03-01T02:53:07;-1.80;99.90
58339;DHT22;48278;52.704;6.536;2023-03-01T02:55:34;-1.80;99.90
58339;DHT22;48278;52.704;6.536;2023-03-01T02:58:02;-1.80;99.90
58339;DHT22;48278;52.704;6.536;2023-03-01T03:00:33;-1.80;99.90
58339;DHT22;48278;52.704;6.536;2023-03-01T03:02:59;-1.70;99.90
58339;DHT22;48278;52.704;6.536;2023-03-01T03:05:28;-1.70;99.90
58339;DHT22;48278;52.704;6.536;2023-03-01T03:07:55;-1.70;99.90
58339;DHT22;48278;52.704;6.536;2023-03-01T03:10:24;-1.70;99.90
58339;DHT22;48278;52.704;6.536;2023-03-01T03:12:55;-1.90;99.90
58339;DHT22;48278;52.704;6.536;2023-03-01T03:15:22;-1.90;99.90
58339;DHT22;48278;52.704;6.536;2023-03-01T03:17:48;-1.90;99.90
58339;DHT22;48278;52.704;6.536;2023-03-01T03:20:17;-2.00;99.90
58339;DHT22;48278;52.704;6.536;2023-03-01T03:22:48;-2.10;99.90
58339;DHT22;48278;52.704;6.536;2023-03-01T03:25:16;-2.10;99.90
58339;DHT22;48278;52.704;6.536;2023-03-01T03:27:43;-2.10;99.90
58339;DHT22;48278;52.704;6.536;2023-03-01T03:30:14;-2.10;99.90
58339;DHT22;48278;52.704;6.536;2023-03-01T03:32:42;-2.10;99.90
58339;DHT22;48278;52.704;6.536;2023-03-01T03:37:50;-2.20;99.90
58339;DHT22;48278;52.704;6.536;2023-03-01T03:40:41;-2.20;99.90
58339;DHT22;48278;52.704;6.536;2023-03-01T03:43:09;-2.30;99.90
58339;DHT22;48278;52.704;6.536;2023-03-01T03:45:35;-2.30;99.90
58339;DHT22;48278;52.704;6.536;2023-03-01T03:48:03;-2.40;99.90
58339;DHT22;48278;52.704;6.536;2023-03-01T03:50:29;-2.50;99.90
58339;DHT22;48278;52.704;6.536;2023-03-01T03:52:56;-2.60;99.90
58339;DHT22;48278;52.704;6.536;2023-03-01T03:55:22;-2.60;99.90
58339;DHT22;48278;52.704;6.536;2023-03-01T03:57:48;-2.70;99.90
58339;DHT22;48278;52.704;6.536;2023-03-01T04:00:21;-2.70;99.90
58339;DHT22;48278;52.704;6.536;2023-03-01T04:02:49;-2.70;99.90
58339;DHT22;48278;52.704;6.536;2023-03-01T04:05:17;-2.70;99.90
58339;DHT22;48278;52.704;6.536;2023-03-01T04:07:44;-2.80;99.90
58339;DHT22;48278;52.704;6.536;2023-03-01T04:10:13;-2.80;99.90
58339;DHT22;48278;52.704;6.536;2023-03-01T04:12:39;-2.80;99.90
58339;DHT22;48278;52.704;6.536;2023-03-01T04:15:06;-2.90;99.90
58339;DHT22;48278;52.704;6.536;2023-03-01T04:17:47;-2.90;99.90
58339;DHT22;48278;52.704;6.536;2023-03-01T04:20:17;-2.90;99.90
58339;DHT22;48278;52.704;6.536;2023-03-01T04:22:43;-2.90;99.90
58339;DHT22;48278;52.704;6.536;2023-03-01T04:25:13;-2.90;99.90
58339;DHT22;48278;52.704;6.536;2023-03-01T04:27:40;-2.90;99.90
58339;DHT22;48278;52.704;6.536;2023-03-01T04:30:08;-3.00;99.90
58339;DHT22;48278;52.704;6.536;2023-03-01T04:32:34;-2.90;99.90
58339;DHT22;48278;52.704;6.536;2023-03-01T04:35:00;-2.90;99.90
58339;DHT22;48278;52.704;6.536;2023-03-01T04:37:26;-2.90;99.90
58339;DHT22;48278;52.704;6.536;2023-03-01T04:39:52;-2.90;99.90
58339;DHT22;48278;52.704;6.536;2023-03-01T04:42:18;-2.90;99.90
58339;DHT22;48278;52.704;6.536;2023-03-01T04:44:45;-2.90;99.90
58339;DHT22;48278;52.704;6.536;2023-03-01T04:47:11;-2.90;99.90
58339;DHT22;48278;52.704;6.536;2023-03-01T04:49:37;-3.00;99.90
58339;DHT22;48278;52.704;6.536;2023-03-01T04:52:04;-3.10;99.90
58339;DHT22;48278;52.704;6.536;2023-03-01T04:54:30;-3.10;99.90
58339;DHT22;48278;52.704;6.536;2023-03-01T04:56:57;-3.10;99.90
58339;DHT22;48278;52.704;6.536;2023-03-01T04:59:23;-3.10;99.90
58339;DHT22;48278;52.704;6.536;2023-03-01T05:01:50;-3.10;99.90
58339;DHT22;48278;52.704;6.536;2023-03-01T05:04:16;-3.10;99.90
58339;DHT22;48278;52.704;6.536;2023-03-01T05:06:41;-3.20;99.90
58339;DHT22;48278;52.704;6.536;2023-03-01T05:09:07;-3.10;99.90
58339;DHT22;48278;52.704;6.536;2023-03-01T05:11:33;-3.10;99.90
58339;DHT22;48278;52.704;6.536;2023-03-01T05:14:08;-3.10;99.90
58339;DHT22;48278;52.704;6.536;2023-03-01T05:16:34;-3.20;99.90
58339;DHT22;48278;52.704;6.536;2023-03-01T05:19:01;-3.20;99.90
58339;DHT22;48278;52.704;6.536;2023-03-01T05:21:38;-3.30;99.90
58339;DHT22;48278;52.704;6.536;2023-03-01T05:24:26;-3.20;99.90
58339;DHT22;48278;52.704;6.536;2023-03-01T05:26:52;-3.20;99.90
58339;DHT22;48278;52.704;6.536;2023-03-01T05:29:19;-3.20;99.90
58339;DHT22;48278;52.704;6.536;2023-03-01T05:31:58;-3.20;99.90
58339;DHT22;48278;52.704;6.536;2023-03-01T05:34:26;-3.20;99.90
58339;DHT22;48278;52.704;6.536;2023-03-01T05:36:52;-3.20;99.90
58339;DHT22;48278;52.704;6.536;2023-03-01T05:39:24;-3.20;99.90
58339;DHT22;48278;52.704;6.536;2023-03-01T05:41:58;-3.30;99.90
58339;DHT22;48278;52.704;6.536;2023-03-01T05:44:28;-3.30;99.90
58339;DHT22;48278;52.704;6.536;2023-03-01T05:46:54;-3.30;99.90
58339;DHT22;48278;52.704;6.536;2023-03-01T05:49:21;-3.30;99.90
58339;DHT22;48278;52.704;6.536;2023-03-01T05:51:51;-3.30;99.90
58339;DHT22;48278;52.704;6.536;2023-03-01T05:54:18;-3.40;99.90
58339;DHT22;48278;52.704;6.536;2023-03-01T05:56:44;-3.40;99.90
58339;DHT22;48278;52.704;6.536;2023-03-01T05:59:11;-3.30;99.90
58339;DHT22;48278;52.704;6.536;2023-03-01T06:01:37;-3.40;99.90
58339;DHT22;48278;52.704;6.536;2023-03-01T06:04:04;-3.40;99.90
58339;DHT22;48278;52.704;6.536;2023-03-01T06:06:33;-3.50;99.90
58339;DHT22;48278;52.704;6.536;2023-03-01T06:08:59;-3.50;99.90
58339;DHT22;48278;52.704;6.536;2023-03-01T06:11:24;-3.40;99.90
58339;DHT22;48278;52.704;6.536;2023-03-01T06:13:50;-3.50;99.90
58339;DHT22;48278;52.704;6.536;2023-03-01T06:16:16;-3.50;99.90
58339;DHT22;48278;52.704;6.536;2023-03-01T06:18:42;-3.50;99.90
58339;DHT22;48278;52.704;6.536;2023-03-01T06:21:08;-3.50;99.90
58339;DHT22;48278;52.704;6.536;2023-03-01T06:23:34;-3.40;99.90
58339;DHT22;48278;52.704;6.536;2023-03-01T06:26:00;-3.50;99.90
58339;DHT22;48278;52.704;6.536;2023-03-01T06:28:26;-3.50;99.90
58339;DHT22;48278;52.704;6.536;2023-03-01T06:30:53;-3.50;99.90
58339;DHT22;48278;52.704;6.536;2023-03-01T06:33:19;-3.50;99.90
58339;DHT22;48278;52.704;6.536;2023-03-01T06:35:46;-3.40;99.90
58339;DHT22;48278;52.704;6.536;2023-03-01T06:38:12;-3.40;99.90
58339;DHT22;48278;52.704;6.536;2023-03-01T06:40:40;-3.40;99.90
58339;DHT22;48278;52.704;6.536;2023-03-01T06:43:07;-3.40;99.90
58339;DHT22;48278;52.704;6.536;2023-03-01T06:45:33;-3.40;99.90
58339;DHT22;48278;52.704;6.536;2023-03-01T06:48:05;-3.30;99.90
58339;DHT22;48278;52.704;6.536;2023-03-01T06:50:32;-3.40;99.90
58339;DHT22;48278;52.704;6.536;2023-03-01T06:52:58;-3.30;99.90
58339;DHT22;48278;52.704;6.536;2023-03-01T06:55:24;-3.30;99.90
58339;DHT22;48278;52.704;6.536;2023-03-01T06:57:57;-3.20;99.90
58339;DHT22;48278;52.704;6.536;2023-03-01T07:00:23;-3.20;99.90
58339;DHT22;48278;52.704;6.536;2023-03-01T07:02:49;-3.10;99.90
58339;DHT22;48278;52.704;6.536;2023-03-01T07:05:19;-3.10;99.90
58339;DHT22;48278;52.704;6.536;2023-03-01T07:07:44;-3.10;99.90
58339;DHT22;48278;52.704;6.536;2023-03-01T07:10:11;-3.00;99.90
58339;DHT22;48278;52.704;6.536;2023-03-01T07:12:37;-3.00;99.90
58339;DHT22;48278;52.704;6.536;2023-03-01T07:15:04;-2.90;99.90
58339;DHT22;48278;52.704;6.536;2023-03-01T07:17:30;-2.90;99.90
58339;DHT22;48278;52.704;6.536;2023-03-01T07:19:56;-2.80;99.90
58339;DHT22;48278;52.704;6.536;2023-03-01T07:22:22;-2.70;99.90
58339;DHT22;48278;52.704;6.536;2023-03-01T07:24:48;-2.60;99.90
58339;DHT22;48278;52.704;6.536;2023-03-01T07:27:14;-2.50;99.90
58339;DHT22;48278;52.704;6.536;2023-03-01T07:29:39;-2.40;99.90
58339;DHT22;48278;52.704;6.536;2023-03-01T07:32:05;-2.30;99.90
58339;DHT22;48278;52.704;6.536;2023-03-01T07:34:31;-2.20;99.90
58339;DHT22;48278;52.704;6.536;2023-03-01T07:36:57;-2.10;99.90
58339;DHT22;48278;52.704;6.536;2023-03-01T07:39:24;-2.10;99.90
58339;DHT22;48278;52.704;6.536;2023-03-01T07:41:50;-2.00;99.90
58339;DHT22;48278;52.704;6.536;2023-03-01T07:44:16;-1.90;99.90
58339;DHT22;48278;52.704;6.536;2023-03-01T07:46:43;-1.80;99.90
58339;DHT22;48278;52.704;6.536;2023-03-01T07:49:09;-1.80;99.90
58339;DHT22;48278;52.704;6.536;2023-03-01T07:51:34;-1.60;99.90
58339;DHT22;48278;52.704;6.536;2023-03-01T07:54:00;-1.60;99.90
58339;DHT22;48278;52.704;6.536;2023-03-01T07:56:26;-1.40;99.90
58339;DHT22;48278;52.704;6.536;2023-03-01T07:58:52;-1.30;99.90
58339;DHT22;48278;52.704;6.536;2023-03-01T08:01:19;-1.20;99.90
58339;DHT22;48278;52.704;6.536;2023-03-01T08:03:46;-1.10;99.90
58339;DHT22;48278;52.704;6.536;2023-03-01T08:06:13;-0.90;99.90
58339;DHT22;48278;52.704;6.536;2023-03-01T08:08:39;-0.90;99.90
58339;DHT22;48278;52.704;6.536;2023-03-01T08:11:06;-0.80;99.90
58339;DHT22;48278;52.704;6.536;2023-03-01T08:13:32;-0.70;99.90
58339;DHT22;48278;52.704;6.536;2023-03-01T08:16:02;-0.60;99.90
58339;DHT22;48278;52.704;6.536;2023-03-01T08:18:28;-0.50;99.90
58339;DHT22;48278;52.704;6.536;2023-03-01T08:20:54;-0.40;99.90
58339;DHT22;48278;52.704;6.536;2023-03-01T08:23:20;-0.50;99.90
58339;DHT22;48278;52.704;6.536;2023-03-01T08:25:45;-0.30;99.90
58339;DHT22;48278;52.704;6.536;2023-03-01T08:28:11;-0.20;99.90
58339;DHT22;48278;52.704;6.536;2023-03-01T08:30:37;-0.10;99.90
58339;DHT22;48278;52.704;6.536;2023-03-01T08:33:03;0.10;99.90
58339;DHT22;48278;52.704;6.536;2023-03-01T08:35:28;0.10;99.90
58339;DHT22;48278;52.704;6.536;2023-03-01T08:37:54;0.20;99.90
58339;DHT22;48278;52.704;6.536;2023-03-01T08:40:20;0.30;99.90
58339;DHT22;48278;52.704;6.536;2023-03-01T08:42:46;0.30;99.90
58339;DHT22;48278;52.704;6.536;2023-03-01T08:45:12;0.40;99.90
58339;DHT22;48278;52.704;6.536;2023-03-01T08:47:39;0.50;99.90
58339;DHT22;48278;52.704;6.536;2023-03-01T08:50:05;0.60;99.90
58339;DHT22;48278;52.704;6.536;2023-03-01T08:52:32;0.70;99.90
58339;DHT22;48278;52.704;6.536;2023-03-01T08:54:58;0.70;99.90
58339;DHT22;48278;52.704;6.536;2023-03-01T08:57:26;0.80;99.90
58339;DHT22;48278;52.704;6.536;2023-03-01T08:59:52;0.90;99.90
58339;DHT22;48278;52.704;6.536;2023-03-01T09:02:21;1.00;99.90
58339;DHT22;48278;52.704;6.536;2023-03-01T09:04:47;1.00;99.90
58339;DHT22;48278;52.704;6.536;2023-03-01T09:07:12;1.10;99.90
58339;DHT22;48278;52.704;6.536;2023-03-01T09:09:38;1.30;99.90
58339;DHT22;48278;52.704;6.536;2023-03-01T09:12:04;1.40;99.90
58339;DHT22;48278;52.704;6.536;2023-03-01T09:14:30;1.50;99.90
58339;DHT22;48278;52.704;6.536;2023-03-01T09:16:56;1.60;99.90
58339;DHT22;48278;52.704;6.536;2023-03-01T09:19:22;1.70;99.90
58339;DHT22;48278;52.704;6.536;2023-03-01T09:21:48;1.80;99.90
58339;DHT22;48278;52.704;6.536;2023-03-01T09:24:23;2.00;99.90
58339;DHT22;48278;52.704;6.536;2023-03-01T09:26:50;2.10;99.90
58339;DHT22;48278;52.704;6.536;2023-03-01T09:29:18;2.20;99.90
58339;DHT22;48278;52.704;6.536;2023-03-01T09:31:43;2.30;99.90
58339;DHT22;48278;52.704;6.536;2023-03-01T09:34:10;2.40;99.90
58339;DHT22;48278;52.704;6.536;2023-03-01T09:36:36;2.50;99.90
58339;DHT22;48278;52.704;6.536;2023-03-01T09:39:03;2.70;99.90
58339;DHT22;48278;52.704;6.536;2023-03-01T09:44:34;3.00;99.90
58339;DHT22;48278;52.704;6.536;2023-03-01T09:47:02;3.10;99.90
58339;DHT22;48278;52.704;6.536;2023-03-01T09:49:31;3.20;99.90
58339;DHT22;48278;52.704;6.536;2023-03-01T09:54:47;3.30;99.90
58339;DHT22;48278;52.704;6.536;2023-03-01T09:57:21;3.40;99.90
58339;DHT22;48278;52.704;6.536;2023-03-01T10:00:03;3.50;99.90
58339;DHT22;48278;52.704;6.536;2023-03-01T10:02:47;3.60;99.90
58339;DHT22;48278;52.704;6.536;2023-03-01T10:05:39;3.80;99.90
58339;DHT22;48278;52.704;6.536;2023-03-01T10:10:57;3.90;99.90
58339;DHT22;48278;52.704;6.536;2023-03-01T10:13:52;4.00;99.90
58339;DHT22;48278;52.704;6.536;2023-03-01T10:19:03;4.10;99.90
58339;DHT22;48278;52.704;6.536;2023-03-01T10:21:29;4.00;99.90
58339;DHT22;48278;52.704;6.536;2023-03-01T10:24:10;4.10;99.90
58339;DHT22;48278;52.704;6.536;2023-03-01T10:26:51;4.10;99.90
58339;DHT22;48278;52.704;6.536;2023-03-01T10:32:29;4.40;99.90
58339;DHT22;48278;52.704;6.536;2023-03-01T10:34:55;4.30;99.90
58339;DHT22;48278;52.704;6.536;2023-03-01T10:37:22;4.40;99.90
58339;DHT22;48278;52.704;6.536;2023-03-01T10:40:08;4.40;99.90
58339;DHT22;48278;52.704;6.536;2023-03-01T10:42:38;4.40;99.90
58339;DHT22;48278;52.704;6.536;2023-03-01T10:45:23;4.50;99.90
58339;DHT22;48278;52.704;6.536;2023-03-01T10:48:22;4.60;99.90
58339;DHT22;48278;52.704;6.536;2023-03-01T10:51:15;4.60;99.90
58339;DHT22;48278;52.704;6.536;2023-03-01T10:53:48;4.60;99.90
58339;DHT22;48278;52.704;6.536;2023-03-01T10:56:16;4.70;99.90
58339;DHT22;48278;52.704;6.536;2023-03-01T10:58:58;4.70;99.90
58339;DHT22;48278;52.704;6.536;2023-03-01T11:01:34;4.70;99.90
58339;DHT22;48278;52.704;6.536;2023-03-01T11:06:33;5.00;99.90
58339;DHT22;48278;52.704;6.536;2023-03-01T11:11:41;4.90;99.90
58339;DHT22;48278;52.704;6.536;2023-03-01T11:14:20;5.00;99.90
58339;DHT22;48278;52.704;6.536;2023-03-01T11:16:49;5.00;99.90
58339;DHT22;48278;52.704;6.536;2023-03-01T11:19:23;5.10;99.90
58339;DHT22;48278;52.704;6.536;2023-03-01T11:27:31;5.30;99.90
58339;DHT22;48278;52.704;6.536;2023-03-01T11:35:28;5.40;99.90
58339;DHT22;48278;52.704;6.536;2023-03-01T11:40:46;5.50;99.90
58339;DHT22;48278;52.704;6.536;2023-03-01T11:43:23;5.50;99.90
58339;DHT22;48278;52.704;6.536;2023-03-01T11:48:38;5.70;99.90
58339;DHT22;48278;52.704;6.536;2023-03-01T11:56:32;5.90;99.90
58339;DHT22;48278;52.704;6.536;2023-03-01T12:10:24;6.00;99.90
58339;DHT22;48278;52.704;6.536;2023-03-01T12:15:41;6.00;99.90
58339;DHT22;48278;52.704;6.536;2023-03-01T12:26:39;6.20;99.90
58339;DHT22;48278;52.704;6.536;2023-03-01T12:29:25;6.20;99.90
58339;DHT22;48278;52.704;6.536;2023-03-01T12:32:13;6.20;99.90
58339;DHT22;48278;52.704;6.536;2023-03-01T12:35:50;6.20;99.90
58339;DHT22;48278;52.704;6.536;2023-03-01T12:38:31;6.20;99.90
58339;DHT22;48278;52.704;6.536;2023-03-01T12:52:40;6.20;99.90
58339;DHT22;48278;52.704;6.536;2023-03-01T13:00:53;6.40;99.90
58339;DHT22;48278;52.704;6.536;2023-03-01T13:06:47;6.50;99.90
58339;DHT22;48278;52.704;6.536;2023-03-01T13:12:00;6.60;99.90
58339;DHT22;48278;52.704;6.536;2023-03-01T13:16:52;6.70;99.90
58339;DHT22;48278;52.704;6.536;2023-03-01T13:19:23;6.70;99.90
58339;DHT22;48278;52.704;6.536;2023-03-01T13:21:52;6.60;99.90
58339;DHT22;48278;52.704;6.536;2023-03-01T13:24:38;6.50;99.90
58339;DHT22;48278;52.704;6.536;2023-03-01T13:29:47;6.70;99.90
58339;DHT22;48278;52.704;6.536;2023-03-01T13:32:30;6.70;99.90
58339;DHT22;48278;52.704;6.536;2023-03-01T13:35:40;6.80;99.90
58339;DHT22;48278;52.704;6.536;2023-03-01T13:41:10;6.80;99.90
58339;DHT22;48278;52.704;6.536;2023-03-01T13:43:40;6.70;99.90
58339;DHT22;48278;52.704;6.536;2023-03-01T13:46:18;6.70;99.90
58339;DHT22;48278;52.704;6.536;2023-03-01T13:48:49;6.70;99.90
58339;DHT22;48278;52.704;6.536;2023-03-01T13:51:16;6.90;99.90
58339;DHT22;48278;52.704;6.536;2023-03-01T13:53:47;6.90;99.90
58339;DHT22;48278;52.704;6.536;2023-03-01T13:56:15;6.90;99.90
58339;DHT22;48278;52.704;6.536;2023-03-01T13:58:54;6.80;99.90
58339;DHT22;48278;52.704;6.536;2023-03-01T14:03:49;6.90;99.90
58339;DHT22;48278;52.704;6.536;2023-03-01T14:06:21;6.90;99.90
58339;DHT22;48278;52.704;6.536;2023-03-01T14:08:49;6.90;99.90
58339;DHT22;48278;52.704;6.536;2023-03-01T14:11:34;6.90;99.90
58339;DHT22;48278;52.704;6.536;2023-03-01T14:19:40;6.80;99.90
58339;DHT22;48278;52.704;6.536;2023-03-01T14:22:29;6.90;99.90
58339;DHT22;48278;52.704;6.536;2023-03-01T14:24:59;7.00;99.90
58339;DHT22;48278;52.704;6.536;2023-03-01T14:27:46;7.00;99.90
58339;DHT22;48278;52.704;6.536;2023-03-01T14:30:23;7.00;99.90
58339;DHT22;48278;52.704;6.536;2023-03-01T14:32:55;7.00;99.90
58339;DHT22;48278;52.704;6.536;2023-03-01T14:35:24;7.00;99.90
58339;DHT22;48278;52.704;6.536;2023-03-01T14:37:50;7.00;99.90
58339;DHT22;48278;52.704;6.536;2023-03-01T14:42:55;7.00;99.90
58339;DHT22;48278;52.704;6.536;2023-03-01T14:45:23;7.00;99.90
58339;DHT22;48278;52.704;6.536;2023-03-01T14:47:50;7.00;99.80
58339;DHT22;48278;52.704;6.536;2023-03-01T14:50:26;7.00;99.50
58339;DHT22;48278;52.704;6.536;2023-03-01T14:52:56;7.00;99.30
58339;DHT22;48278;52.704;6.536;2023-03-01T14:55:30;7.00;99.90
58339;DHT22;48278;52.704;6.536;2023-03-01T14:57:57;7.00;99.90
58339;DHT22;48278;52.704;6.536;2023-03-01T15:00:29;7.00;99.90
58339;DHT22;48278;52.704;6.536;2023-03-01T15:02:56;7.10;99.90
58339;DHT22;48278;52.704;6.536;2023-03-01T15:05:30;6.90;99.90
58339;DHT22;48278;52.704;6.536;2023-03-01T15:08:01;6.90;99.90
58339;DHT22;48278;52.704;6.536;2023-03-01T15:10:31;6.90;99.90
58339;DHT22;48278;52.704;6.536;2023-03-01T15:13:11;6.90;99.90
58339;DHT22;48278;52.704;6.536;2023-03-01T15:15:44;6.80;99.90
58339;DHT22;48278;52.704;6.536;2023-03-01T15:18:28;6.90;99.90
58339;DHT22;48278;52.704;6.536;2023-03-01T15:20:56;6.80;99.90
58339;DHT22;48278;52.704;6.536;2023-03-01T15:23:30;6.90;99.90
58339;DHT22;48278;52.704;6.536;2023-03-01T15:25:57;6.80;99.90
58339;DHT22;48278;52.704;6.536;2023-03-01T15:28:26;6.80;99.90
58339;DHT22;48278;52.704;6.536;2023-03-01T15:31:19;6.80;99.90
58339;DHT22;48278;52.704;6.536;2023-03-01T15:33:46;6.80;99.90
58339;DHT22;48278;52.704;6.536;2023-03-01T15:36:43;6.80;99.90
58339;DHT22;48278;52.704;6.536;2023-03-01T15:39:41;6.80;99.90
58339;DHT22;48278;52.704;6.536;2023-03-01T15:42:57;6.70;99.90
58339;DHT22;48278;52.704;6.536;2023-03-01T15:50:25;6.60;99.90
58339;DHT22;48278;52.704;6.536;2023-03-01T15:52:51;6.60;99.90
58339;DHT22;48278;52.704;6.536;2023-03-01T15:55:19;6.60;99.90
58339;DHT22;48278;52.704;6.536;2023-03-01T15:57:45;6.60;99.90
58339;DHT22;48278;52.704;6.536;2023-03-01T16:00:13;6.50;99.90
58339;DHT22;48278;52.704;6.536;2023-03-01T16:02:40;6.50;99.90
58339;DHT22;48278;52.704;6.536;2023-03-01T16:05:14;6.60;99.90
58339;DHT22;48278;52.704;6.536;2023-03-01T16:07:42;6.50;99.90
58339;DHT22;48278;52.704;6.536;2023-03-01T16:10:08;6.50;99.90
58339;DHT22;48278;52.704;6.536;2023-03-01T16:12:33;6.50;99.90
58339;DHT22;48278;52.704;6.536;2023-03-01T16:14:59;6.50;99.90
58339;DHT22;48278;52.704;6.536;2023-03-01T16:17:25;6.40;99.90
58339;DHT22;48278;52.704;6.536;2023-03-01T16:19:51;6.40;99.90
58339;DHT22;48278;52.704;6.536;2023-03-01T16:22:16;6.30;99.90
58339;DHT22;48278;52.704;6.536;2023-03-01T16:24:42;6.20;99.90
58339;DHT22;48278;52.704;6.536;2023-03-01T16:27:08;6.20;99.90
58339;DHT22;48278;52.704;6.536;2023-03-01T16:29:34;6.20;99.90
58339;DHT22;48278;52.704;6.536;2023-03-01T16:32:01;6.10;99.90
58339;DHT22;48278;52.704;6.536;2023-03-01T16:34:27;6.00;99.90
58339;DHT22;48278;52.704;6.536;2023-03-01T16:36:52;6.00;99.90
58339;DHT22;48278;52.704;6.536;2023-03-01T16:39:18;5.90;99.90
58339;DHT22;48278;52.704;6.536;2023-03-01T16:41:44;5.90;99.90
58339;DHT22;48278;52.704;6.536;2023-03-01T16:44:09;5.70;99.90
58339;DHT22;48278;52.704;6.536;2023-03-01T16:46:35;5.70;99.90
58339;DHT22;48278;52.704;6.536;2023-03-01T16:49:01;5.60;99.90
58339;DHT22;48278;52.704;6.536;2023-03-01T16:51:28;5.40;99.90
58339;DHT22;48278;52.704;6.536;2023-03-01T16:53:55;5.40;99.90
58339;DHT22;48278;52.704;6.536;2023-03-01T16:56:21;5.40;99.90
58339;DHT22;48278;52.704;6.536;2023-03-01T16:58:47;5.30;99.90
58339;DHT22;48278;52.704;6.536;2023-03-01T17:01:16;5.30;99.90
58339;DHT22;48278;52.704;6.536;2023-03-01T17:03:42;5.30;99.90
58339;DHT22;48278;52.704;6.536;2023-03-01T17:06:12;5.10;99.90
58339;DHT22;48278;52.704;6.536;2023-03-01T17:08:39;5.10;99.90
58339;DHT22;48278;52.704;6.536;2023-03-01T17:11:07;5.00;99.90
58339;DHT22;48278;52.704;6.536;2023-03-01T17:13:34;4.90;99.90
58339;DHT22;48278;52.704;6.536;2023-03-01T17:16:05;4.80;99.90
58339;DHT22;48278;52.704;6.536;2023-03-01T17:18:31;4.80;99.90
58339;DHT22;48278;52.704;6.536;2023-03-01T17:20:57;4.80;99.90
58339;DHT22;48278;52.704;6.536;2023-03-01T17:23:23;4.60;99.90
58339;DHT22;48278;52.704;6.536;2023-03-01T17:25:48;4.50;99.90
58339;DHT22;48278;52.704;6.536;2023-03-01T17:28:14;4.50;99.90
58339;DHT22;48278;52.704;6.536;2023-03-01T17:30:44;4.40;99.90
58339;DHT22;48278;52.704;6.536;2023-03-01T17:33:13;4.30;99.90
58339;DHT22;48278;52.704;6.536;2023-03-01T17:35:38;4.10;99.90
58339;DHT22;48278;52.704;6.536;2023-03-01T17:38:05;4.10;99.90
58339;DHT22;48278;52.704;6.536;2023-03-01T17:40:31;4.10;99.90
58339;DHT22;48278;52.704;6.536;2023-03-01T17:42:57;4.00;99.90
58339;DHT22;48278;52.704;6.536;2023-03-01T17:45:23;3.80;99.90
58339;DHT22;48278;52.704;6.536;2023-03-01T17:47:49;3.80;99.90
58339;DHT22;48278;52.704;6.536;2023-03-01T17:50:15;3.80;99.90
58339;DHT22;48278;52.704;6.536;2023-03-01T17:52:41;3.80;99.90
58339;DHT22;48278;52.704;6.536;2023-03-01T17:55:07;3.80;99.90
58339;DHT22;48278;52.704;6.536;2023-03-01T17:57:33;3.70;99.90
58339;DHT22;48278;52.704;6.536;2023-03-01T17:59:59;3.70;99.90